createdAt,value
2019-01-19T00:01:17.430Z,37.43
2019-01-19T00:04:07.113Z,36.23
2019-01-19T00:06:39.309Z,36.97
2019-01-19T00:09:11.548Z,36.53
2019-01-19T00:11:46.848Z,36.33
2019-01-19T00:14:19.560Z,37.30
2019-01-19T00:17:04.524Z,37.47
2019-01-19T00:19:54.636Z,37.63
2019-01-19T00:22:33.031Z,35.70
2019-01-19T00:25:23.305Z,34.70
2019-01-19T00:27:58.058Z,36.53
2019-01-19T00:30:42.779Z,36.00
2019-01-19T00:33:21.209Z,37.57
2019-01-19T00:36:03.176Z,35.33
2019-01-19T00:39:08.737Z,36.80
2019-01-19T00:41:46.654Z,36.93
2019-01-19T00:44:38.609Z,37.80
2019-01-19T00:47:25.926Z,37.80
2019-01-19T00:49:58.179Z,38.23
2019-01-19T00:52:34.925Z,37.90
2019-01-19T00:55:22.070Z,35.27
2019-01-19T00:58:10.018Z,35.00
2019-01-19T01:01:13.672Z,37.37
2019-01-19T01:04:05.547Z,35.60
2019-01-19T01:06:46.481Z,35.90
2019-01-19T01:09:31.464Z,34.93
2019-01-19T01:12:20.951Z,32.83
2019-01-19T01:15:02.929Z,33.20
2019-01-19T01:17:35.623Z,31.83
2019-01-19T01:20:20.361Z,34.43
2019-01-19T01:23:02.069Z,36.23
2019-01-19T01:25:40.196Z,39.70
2019-01-19T01:28:29.217Z,38.50
2019-01-19T01:31:10.733Z,38.03
2019-01-19T01:33:58.447Z,41.70
2019-01-19T01:36:46.566Z,40.67
2019-01-19T01:39:21.817Z,38.90
2019-01-19T01:42:00.171Z,40.57
2019-01-19T01:44:50.765Z,38.83
2019-01-19T01:47:36.005Z,40.50
2019-01-19T01:50:24.138Z,40.03
2019-01-19T01:53:08.911Z,38.17
2019-01-19T01:55:39.261Z,41.60
2019-01-19T01:58:11.433Z,40.87
2019-01-19T02:00:50.832Z,42.50
2019-01-19T02:03:43.065Z,42.47
2019-01-19T02:06:37.447Z,41.77
2019-01-19T02:09:29.712Z,42.23
2019-01-19T02:12:27.986Z,39.33
2019-01-19T02:15:17.348Z,37.67
2019-01-19T02:18:08.229Z,36.07
2019-01-19T02:20:49.643Z,34.40
2019-01-19T02:23:29.441Z,36.37
2019-01-19T02:26:18.185Z,33.57
2019-01-19T02:29:16.315Z,33.67
2019-01-19T02:31:48.765Z,36.60
2019-01-19T02:34:36.414Z,40.20
2019-01-19T02:37:25.554Z,42.07
2019-01-19T02:40:01.429Z,42.00
2019-01-19T02:42:42.993Z,40.60
2019-01-19T02:45:30.364Z,41.00
2019-01-19T02:48:20.940Z,41.60
2019-01-19T02:50:58.933Z,40.77
2019-01-19T02:53:43.603Z,42.30
2019-01-19T02:56:19.245Z,41.53
2019-01-19T02:59:12.546Z,38.50
2019-01-19T03:01:51.678Z,38.20
2019-01-19T03:04:24.422Z,36.50
2019-01-19T03:07:06.092Z,37.63
2019-01-19T03:10:02.549Z,39.17
2019-01-19T03:12:41.331Z,40.87
2019-01-19T03:15:38.489Z,41.17
2019-01-19T03:18:13.364Z,41.80
2019-01-19T03:20:54.992Z,41.07
2019-01-19T03:23:48.922Z,41.40
2019-01-19T03:26:27.514Z,42.23
2019-01-19T03:29:33.344Z,40.13
2019-01-19T03:32:17.410Z,40.23
2019-01-19T03:34:50.705Z,40.23
2019-01-19T03:37:37.698Z,40.27
2019-01-19T03:40:38.098Z,39.00
2019-01-19T03:43:22.708Z,37.87
2019-01-19T03:46:20.101Z,40.10
2019-01-19T03:49:01.476Z,37.40
2019-01-19T03:51:39.654Z,37.97
2019-01-19T03:54:27.053Z,41.50
2019-01-19T03:57:08.172Z,39.77
2019-01-19T03:59:58.088Z,37.50
2019-01-19T04:02:42.892Z,35.37
2019-01-19T04:05:24.300Z,35.37
2019-01-19T04:08:02.388Z,37.47
2019-01-19T04:10:37.857Z,38.77
2019-01-19T04:13:18.876Z,37.03
2019-01-19T04:16:16.238Z,35.00
2019-01-19T04:18:57.499Z,30.40
2019-01-19T04:21:48.463Z,30.43
2019-01-19T04:24:23.557Z,29.37
2019-01-19T04:26:53.329Z,29.73
2019-01-19T04:29:23.158Z,31.80
2019-01-19T04:31:53.217Z,30.33
2019-01-19T04:34:22.773Z,28.70
2019-01-19T04:36:53.042Z,28.83
2019-01-19T04:39:23.122Z,30.47
2019-01-19T04:41:53.322Z,29.23
2019-01-19T04:44:22.961Z,28.30
2019-01-19T04:46:53.000Z,28.97
2019-01-19T04:49:22.965Z,27.87
2019-01-19T04:51:52.578Z,28.60
2019-01-19T04:54:22.311Z,27.30
2019-01-19T04:56:52.010Z,29.23
2019-01-19T04:59:21.712Z,30.27
2019-01-19T05:01:51.460Z,29.73
2019-01-19T05:04:20.927Z,29.03
2019-01-19T05:06:50.382Z,31.13
2019-01-19T05:09:20.790Z,31.60
2019-01-19T05:11:50.468Z,33.47
2019-01-19T05:14:20.094Z,33.07
2019-01-19T05:16:49.630Z,34.63
2019-01-19T05:19:19.181Z,34.70
2019-01-19T05:21:49.058Z,35.33
2019-01-19T05:24:18.749Z,34.27
2019-01-19T05:26:48.321Z,35.87
2019-01-19T05:29:18.930Z,38.40
2019-01-19T05:31:48.814Z,40.27
2019-01-19T05:34:18.636Z,41.03
2019-01-19T05:36:48.366Z,44.03
2019-01-19T05:39:18.228Z,43.43
2019-01-19T05:41:47.794Z,45.83
2019-01-19T05:44:17.263Z,44.50
2019-01-19T05:46:47.006Z,46.43
2019-01-19T05:49:16.724Z,42.87
2019-01-19T05:51:46.089Z,41.70
2019-01-19T05:54:15.777Z,42.37
2019-01-19T05:56:45.461Z,42.27
2019-01-19T05:59:14.839Z,41.80
2019-01-19T06:01:45.025Z,39.87
2019-01-19T06:04:14.843Z,40.73
2019-01-19T06:06:47.077Z,38.83
2019-01-19T06:09:16.177Z,38.30
2019-01-19T06:11:45.516Z,35.03
2019-01-19T06:14:15.409Z,37.03
2019-01-19T06:16:45.471Z,40.23
2019-01-19T06:19:15.225Z,39.67
2019-01-19T06:21:46.741Z,39.57
2019-01-19T06:24:16.404Z,42.67
2019-01-19T06:26:46.009Z,42.33
2019-01-19T06:29:15.974Z,48.47
2019-01-19T06:31:46.946Z,47.27
2019-01-19T06:34:16.473Z,46.10
2019-01-19T06:36:46.169Z,45.10
2019-01-19T06:39:15.994Z,39.93
2019-01-19T06:41:45.719Z,39.83
2019-01-19T06:44:15.510Z,38.20
2019-01-19T06:46:45.697Z,37.83
2019-01-19T06:49:16.517Z,39.63
2019-01-19T06:51:46.070Z,40.07
2019-01-19T06:54:16.041Z,39.10
2019-01-19T06:56:45.542Z,42.47
2019-01-19T06:59:17.482Z,45.63
2019-01-19T07:01:46.512Z,41.67
2019-01-19T07:04:16.067Z,43.00
2019-01-19T07:06:45.861Z,42.20
2019-01-19T07:09:15.577Z,40.93
2019-01-19T07:11:45.584Z,40.20
2019-01-19T07:14:15.845Z,39.70
2019-01-19T07:16:45.753Z,42.00
2019-01-19T07:19:15.209Z,42.53
2019-01-19T07:21:45.435Z,43.30
2019-01-19T07:24:15.093Z,48.87
2019-01-19T07:26:45.149Z,49.93
2019-01-19T07:29:14.757Z,50.23
2019-01-19T07:31:44.345Z,49.47
2019-01-19T07:34:14.817Z,49.47
2019-01-19T07:36:44.507Z,49.63
2019-01-19T07:39:14.041Z,49.60
2019-01-19T07:41:43.874Z,49.60
2019-01-19T07:44:13.556Z,50.93
2019-01-19T07:46:43.341Z,51.60
2019-01-19T07:49:13.042Z,52.03
2019-01-19T07:51:42.705Z,51.53
2019-01-19T07:54:12.337Z,52.27
2019-01-19T07:56:42.713Z,55.27
2019-01-19T07:59:12.404Z,59.33
2019-01-19T08:01:42.233Z,55.93
2019-01-19T08:04:11.708Z,55.80
2019-01-19T08:06:41.209Z,59.10
2019-01-19T08:09:12.810Z,60.17
2019-01-19T08:11:49.831Z,69.17
2019-01-19T08:14:19.405Z,71.23
2019-01-19T08:16:48.793Z,73.57
2019-01-19T08:19:18.456Z,67.73
2019-01-19T08:21:48.265Z,69.90
2019-01-19T08:24:18.316Z,111.67
2019-01-19T08:26:47.901Z,86.00
2019-01-19T08:29:18.416Z,73.53
2019-01-19T08:31:48.241Z,70.63
2019-01-19T08:34:18.405Z,73.80
2019-01-19T08:36:49.272Z,75.13
2019-01-19T08:39:19.562Z,73.50
2019-01-19T08:41:49.325Z,75.63
2019-01-19T08:44:18.933Z,76.13
2019-01-19T08:46:48.414Z,73.47
2019-01-19T08:49:18.158Z,77.23
2019-01-19T08:51:47.889Z,75.40
2019-01-19T08:54:17.864Z,79.10
2019-01-19T08:56:47.700Z,79.77
2019-01-19T08:59:17.065Z,81.37
2019-01-19T09:01:46.686Z,82.30
2019-01-19T09:04:16.205Z,83.00
2019-01-19T09:06:46.009Z,83.90
2019-01-19T09:09:15.849Z,86.63
2019-01-19T09:11:45.877Z,84.77
2019-01-19T09:14:19.131Z,88.23
2019-01-19T09:16:52.144Z,86.10
2019-01-19T09:19:23.476Z,90.37
2019-01-19T09:21:53.765Z,85.90
2019-01-19T09:24:24.242Z,86.43
2019-01-19T09:26:54.714Z,83.90
2019-01-19T09:29:25.581Z,84.47
2019-01-19T09:31:55.083Z,118.30
2019-01-19T09:34:24.588Z,94.03
2019-01-19T09:36:54.061Z,83.43
2019-01-19T09:39:25.127Z,84.53
2019-01-19T09:41:55.033Z,78.03
2019-01-19T09:44:24.489Z,74.73
2019-01-19T09:46:54.193Z,72.23
2019-01-19T09:49:24.093Z,75.07
2019-01-19T09:51:53.846Z,73.50
2019-01-19T09:54:24.925Z,72.20
2019-01-19T09:56:54.435Z,68.20
2019-01-19T09:59:23.885Z,60.07
2019-01-19T10:01:53.760Z,64.27
2019-01-19T10:04:23.420Z,59.97
2019-01-19T10:06:52.886Z,59.30
2019-01-19T10:09:22.924Z,59.97
2019-01-19T10:11:52.432Z,57.97
2019-01-19T10:14:21.884Z,53.60
2019-01-19T10:16:51.994Z,54.67
2019-01-19T10:19:21.628Z,53.13
2019-01-19T10:21:51.129Z,51.60
2019-01-19T10:24:20.905Z,42.70
2019-01-19T10:26:50.388Z,41.33
2019-01-19T10:29:20.335Z,37.23
2019-01-19T10:31:50.079Z,37.43
2019-01-19T10:34:19.475Z,36.83
2019-01-19T10:36:48.813Z,35.10
2019-01-19T10:39:18.379Z,37.43
2019-01-19T10:41:49.104Z,33.83
2019-01-19T10:44:18.439Z,36.53
2019-01-19T10:46:48.780Z,36.07
2019-01-19T10:49:18.626Z,36.00
2019-01-19T10:51:48.100Z,37.10
2019-01-19T10:54:17.856Z,34.87
2019-01-19T10:56:47.337Z,36.90
2019-01-19T10:59:16.789Z,34.83
2019-01-19T11:01:46.938Z,35.17
2019-01-19T11:04:16.577Z,37.33
2019-01-19T11:06:46.333Z,35.63
2019-01-19T11:09:15.769Z,30.07
2019-01-19T11:11:45.245Z,28.53
2019-01-19T11:14:14.697Z,25.37
2019-01-19T11:16:44.158Z,23.77
2019-01-19T11:19:13.642Z,24.20
2019-01-19T11:21:43.089Z,25.07
2019-01-19T11:24:12.559Z,25.23
2019-01-19T11:26:42.186Z,25.77
2019-01-19T11:29:11.541Z,24.93
2019-01-19T11:31:40.889Z,23.60
2019-01-19T11:34:10.564Z,24.07
2019-01-19T11:36:40.525Z,23.37
2019-01-19T11:39:09.972Z,42.70
2019-01-19T11:41:39.476Z,27.53
2019-01-19T11:44:10.379Z,21.93
2019-01-19T11:46:39.830Z,18.67
2019-01-19T11:49:09.697Z,16.93
2019-01-19T11:51:39.366Z,15.47
2019-01-19T11:54:09.305Z,16.90
2019-01-19T11:56:38.799Z,14.43
2019-01-19T11:59:08.528Z,14.53
2019-01-19T12:01:37.983Z,15.03
2019-01-19T12:04:07.380Z,15.33
2019-01-19T12:06:37.093Z,16.00
2019-01-19T12:09:07.733Z,15.50
2019-01-19T12:11:37.214Z,13.70
2019-01-19T12:14:07.144Z,14.67
2019-01-19T12:16:36.774Z,16.40
2019-01-19T12:19:06.149Z,14.13
2019-01-19T12:21:35.601Z,15.20
2019-01-19T12:24:05.735Z,10.60
2019-01-19T12:26:35.443Z,10.00
2019-01-19T12:29:04.809Z,9.00
2019-01-19T12:31:34.253Z,8.80
2019-01-19T12:34:03.726Z,9.63
2019-01-19T12:36:33.165Z,9.23
2019-01-19T12:39:02.729Z,9.17
2019-01-19T12:41:32.429Z,8.30
2019-01-19T12:44:01.893Z,8.37
2019-01-19T12:46:32.191Z,7.70
2019-01-19T12:49:01.832Z,7.90
2019-01-19T12:51:31.170Z,8.00
2019-01-19T12:54:00.520Z,7.77
2019-01-19T12:56:30.160Z,8.70
2019-01-19T12:58:59.630Z,8.20
2019-01-19T13:01:29.302Z,8.70
2019-01-19T13:03:59.049Z,9.20
2019-01-19T13:06:31.412Z,9.20
2019-01-19T13:09:00.940Z,10.83
2019-01-19T13:11:45.045Z,9.60
2019-01-19T13:14:14.497Z,10.53
2019-01-19T13:17:19.677Z,9.83
2019-01-19T13:19:57.806Z,10.83
2019-01-19T13:22:39.227Z,9.60
2019-01-19T13:25:27.424Z,9.47
2019-01-19T13:28:19.043Z,9.03
2019-01-19T13:31:06.895Z,8.17
2019-01-19T13:33:41.978Z,7.70
2019-01-19T13:36:22.881Z,8.07
2019-01-19T13:38:55.122Z,7.83
2019-01-19T13:41:33.635Z,8.03
2019-01-19T13:44:14.665Z,7.50
2019-01-19T13:47:02.100Z,6.13
2019-01-19T13:49:49.335Z,6.43
2019-01-19T13:52:23.018Z,6.77
2019-01-19T13:55:22.849Z,6.23
2019-01-19T13:58:04.232Z,5.90
2019-01-19T14:03:54.084Z,5.77
2019-01-19T14:06:40.561Z,5.70
2019-01-19T14:09:20.105Z,6.20
2019-01-19T14:12:09.747Z,6.10
2019-01-19T14:14:44.464Z,7.07
2019-01-19T14:17:44.621Z,6.43
2019-01-19T14:20:49.785Z,6.50
2019-01-19T14:23:33.556Z,7.53
2019-01-19T14:26:35.489Z,6.63
2019-01-19T14:29:20.054Z,6.40
2019-01-19T14:32:01.584Z,6.63
2019-01-19T14:34:33.797Z,6.00
2019-01-19T14:37:17.629Z,5.60
2019-01-19T14:40:04.898Z,5.80
2019-01-19T14:42:53.461Z,5.83
2019-01-19T14:45:30.069Z,5.67
2019-01-19T14:48:09.138Z,5.63
2019-01-19T14:51:02.761Z,5.57
2019-01-19T14:53:56.831Z,7.10
2019-01-19T14:56:49.877Z,8.73
2019-01-19T14:59:25.027Z,10.10
2019-01-19T15:02:14.889Z,9.40
2019-01-19T15:04:49.926Z,10.10
2019-01-19T15:07:31.201Z,11.07
2019-01-19T15:10:23.873Z,11.10
2019-01-19T15:13:01.858Z,11.07
2019-01-19T15:15:56.370Z,12.23
2019-01-19T15:18:47.904Z,15.30
2019-01-19T15:21:32.493Z,14.50
2019-01-19T15:24:16.616Z,14.70
2019-01-19T15:27:06.797Z,14.03
2019-01-19T15:29:47.849Z,13.80
2019-01-19T15:32:37.892Z,102.17
2019-01-19T15:35:10.103Z,20.93
2019-01-19T15:37:45.424Z,15.40
2019-01-19T15:40:24.251Z,15.07
2019-01-19T15:43:14.053Z,16.90
2019-01-19T15:45:46.298Z,17.37
2019-01-19T15:48:33.548Z,16.97
2019-01-19T15:51:06.593Z,17.10
2019-01-19T15:53:42.865Z,17.27
2019-01-19T15:56:44.419Z,17.50
2019-01-19T15:59:28.450Z,19.47
2019-01-19T16:02:16.018Z,19.67
2019-01-19T16:04:48.538Z,19.23
2019-01-19T16:07:50.902Z,19.47
2019-01-19T16:10:39.565Z,20.50
2019-01-19T16:13:32.661Z,21.70
2019-01-19T16:16:12.045Z,20.50
2019-01-19T16:18:47.261Z,21.13
2019-01-19T16:21:53.954Z,21.97
2019-01-19T16:24:47.684Z,24.30
2019-01-19T16:27:28.885Z,24.50
2019-01-19T16:30:10.285Z,23.10
2019-01-19T16:33:03.898Z,25.87
2019-01-19T16:35:58.163Z,24.97
2019-01-19T16:38:48.769Z,25.13
2019-01-19T16:41:30.261Z,25.80
2019-01-19T16:44:20.747Z,26.73
2019-01-19T16:47:02.469Z,26.73
2019-01-19T16:49:56.126Z,27.50
2019-01-19T16:52:34.830Z,26.90
2019-01-19T16:55:23.773Z,26.73
2019-01-19T16:58:04.886Z,28.57
2019-01-19T17:00:56.528Z,28.97
2019-01-19T17:03:47.323Z,29.30
2019-01-19T17:06:40.486Z,29.30
2019-01-19T17:09:25.237Z,27.37
2019-01-19T17:11:57.429Z,29.20
2019-01-19T17:14:56.681Z,28.83
2019-01-19T17:17:47.046Z,29.50
2019-01-19T17:20:19.752Z,30.53
2019-01-19T17:22:54.859Z,30.73
2019-01-19T17:25:46.885Z,31.80
2019-01-19T17:28:36.195Z,29.10
2019-01-19T17:31:11.635Z,29.40
2019-01-19T17:34:03.672Z,30.47
2019-01-19T17:36:38.973Z,30.33
2019-01-19T17:39:20.570Z,31.07
2019-01-19T17:42:16.960Z,28.87
2019-01-19T17:44:52.693Z,30.87
2019-01-19T17:47:24.820Z,29.97
2019-01-19T17:50:00.184Z,30.37
2019-01-19T17:52:35.337Z,30.23
2019-01-19T17:55:22.329Z,34.37
2019-01-19T17:58:13.069Z,35.10
2019-01-19T18:01:22.721Z,35.60
2019-01-19T18:04:13.688Z,33.83
2019-01-19T18:06:49.078Z,33.07
2019-01-19T18:09:27.236Z,33.43
2019-01-19T18:12:08.309Z,32.47
2019-01-19T18:15:10.702Z,32.43
2019-01-19T18:17:43.044Z,33.90
2019-01-19T18:20:31.361Z,34.37
2019-01-19T18:23:16.068Z,33.07
2019-01-19T18:26:03.577Z,32.17
2019-01-19T18:28:58.800Z,30.97
2019-01-19T18:31:52.639Z,34.07
2019-01-19T18:34:31.563Z,32.90
2019-01-19T18:37:10.057Z,31.83
2019-01-19T18:39:46.051Z,31.63
2019-01-19T18:42:39.095Z,33.27
2019-01-19T18:45:20.464Z,33.23
2019-01-19T18:48:02.711Z,32.27
2019-01-19T18:50:51.654Z,34.27
2019-01-19T18:53:36.682Z,36.77
2019-01-19T18:56:44.137Z,34.83
2019-01-19T18:59:41.229Z,32.83
2019-01-19T19:02:16.654Z,32.10
2019-01-19T19:05:12.697Z,33.00
2019-01-19T19:08:01.904Z,34.23
2019-01-19T19:10:51.096Z,33.83
2019-01-19T19:13:35.806Z,35.03
2019-01-19T19:16:31.324Z,33.43
2019-01-19T19:19:21.490Z,35.77
2019-01-19T19:21:59.516Z,36.37
2019-01-19T19:24:37.711Z,34.90
2019-01-19T19:27:18.930Z,34.53
2019-01-19T19:30:00.688Z,35.67
2019-01-19T19:32:39.699Z,37.50
2019-01-19T19:35:18.191Z,35.40
2019-01-19T19:38:10.419Z,37.37
2019-01-19T19:41:05.730Z,36.20
2019-01-19T19:43:40.884Z,36.37
2019-01-19T19:46:15.771Z,36.27
2019-01-19T19:48:56.954Z,35.87
2019-01-19T19:51:32.790Z,37.47
2019-01-19T19:54:02.310Z,36.40
2019-01-19T19:56:30.245Z,37.13
2019-01-19T19:58:59.617Z,36.30
2019-01-19T20:01:30.381Z,37.27
2019-01-19T20:04:00.637Z,37.10
2019-01-19T20:06:33.025Z,35.57
2019-01-19T20:09:02.414Z,37.53
2019-01-19T20:11:32.346Z,36.80
2019-01-19T20:14:02.257Z,36.17
2019-01-19T20:16:31.993Z,39.00
2019-01-19T20:19:02.093Z,37.50
2019-01-19T20:21:32.067Z,38.00
2019-01-19T20:24:02.275Z,36.83
2019-01-19T20:26:31.942Z,38.80
2019-01-19T20:29:01.440Z,40.13
2019-01-19T20:31:31.233Z,38.43
2019-01-19T20:34:01.507Z,38.23
2019-01-19T20:36:31.184Z,37.63
2019-01-19T20:39:01.232Z,39.03
2019-01-19T20:41:30.909Z,37.93
2019-01-19T20:44:00.717Z,39.43
2019-01-19T20:46:30.549Z,38.37
2019-01-19T20:49:00.314Z,41.17
2019-01-19T20:51:29.675Z,40.53
2019-01-19T20:53:59.285Z,42.57
2019-01-19T20:56:30.623Z,41.70
2019-01-19T20:59:00.621Z,43.00
2019-01-19T21:01:30.647Z,42.30
2019-01-19T21:04:01.338Z,44.03
2019-01-19T21:06:31.170Z,44.70
2019-01-19T21:09:01.246Z,42.83
2019-01-19T21:11:30.989Z,41.20
2019-01-19T21:14:01.323Z,43.47
2019-01-19T21:16:30.809Z,41.70
2019-01-19T21:19:00.676Z,44.37
2019-01-19T21:21:30.121Z,46.70
2019-01-19T21:23:59.990Z,47.10
2019-01-19T21:26:29.344Z,46.00
2019-01-19T21:28:59.359Z,46.80
2019-01-19T21:31:29.197Z,43.37
2019-01-19T21:33:59.814Z,45.57
2019-01-19T21:36:29.411Z,44.77
2019-01-19T21:38:59.072Z,42.83
2019-01-19T21:41:28.540Z,41.30
2019-01-19T21:43:58.568Z,42.43
2019-01-19T21:46:27.982Z,44.67
2019-01-19T21:48:57.838Z,42.10
2019-01-19T21:51:27.719Z,41.13
2019-01-19T21:53:57.733Z,41.80
2019-01-19T21:56:27.897Z,39.73
2019-01-19T21:58:58.335Z,38.53
2019-01-19T22:01:28.987Z,41.53
2019-01-19T22:03:59.108Z,41.97
2019-01-19T22:06:29.309Z,40.97
2019-01-19T22:08:58.826Z,42.60
2019-01-19T22:11:29.265Z,43.97
2019-01-19T22:13:59.516Z,41.43
2019-01-19T22:16:30.336Z,41.37
2019-01-19T22:18:59.504Z,41.80
2019-01-19T22:21:30.854Z,42.87
2019-01-19T22:24:00.874Z,42.27
2019-01-19T22:26:31.174Z,41.13
2019-01-19T22:29:01.212Z,41.80
2019-01-19T22:31:31.883Z,41.33
2019-01-19T22:34:01.545Z,43.07
2019-01-19T22:36:32.793Z,42.63
2019-01-19T22:39:02.244Z,42.77
2019-01-19T22:41:32.411Z,42.70
2019-01-19T22:44:05.857Z,42.13
2019-01-19T22:46:36.561Z,41.57
2019-01-19T22:49:08.474Z,41.93
2019-01-19T22:51:39.024Z,43.00
2019-01-19T22:54:12.172Z,41.43
2019-01-19T22:56:42.143Z,41.67
2019-01-19T22:59:12.449Z,41.73
2019-01-19T23:01:42.818Z,42.63
2019-01-19T23:04:15.794Z,41.50
2019-01-19T23:06:48.324Z,42.30
2019-01-19T23:09:18.531Z,42.67
2019-01-19T23:11:49.089Z,42.93
2019-01-19T23:14:24.634Z,41.63
2019-01-19T23:16:53.990Z,43.17
2019-01-19T23:19:27.092Z,41.00
2019-01-19T23:21:57.789Z,44.87
2019-01-19T23:24:33.523Z,45.27
2019-01-19T23:27:04.501Z,46.93
2019-01-19T23:29:33.725Z,53.23
2019-01-19T23:32:03.230Z,47.27
2019-01-19T23:34:32.277Z,44.97
2019-01-19T23:37:01.330Z,45.07
2019-01-19T23:39:30.764Z,43.70
2019-01-19T23:41:59.796Z,45.90
2019-01-19T23:44:29.082Z,44.73
2019-01-19T23:46:59.197Z,42.60
2019-01-19T23:49:29.068Z,42.33
2019-01-19T23:51:58.524Z,43.87
2019-01-19T23:54:28.162Z,49.20
2019-01-19T23:56:57.897Z,45.23
2019-01-19T23:59:27.472Z,43.90
